Marlborough, NH (03455)

2:33 AM EDT on July 27, 2016 (GMT -0400)
APRSWXNET | | Change Station

Elev 754 ft 42.91 °N, 72.22 °W | Updated 32 minutes ago

Mostly Cloudy
Mostly Cloudy
62 °F
Feels Like 62 °F
N
0
Wind Variable Wind from South
Gusts 0.0 mph

Today
High -- | Low -- °F
--% Chance of Precip.
Yesterday
High -- | Low -- °F
Precip. -- in
Pressure 30.00 in
Visibility 10.0 miles
Clouds Mostly Cloudy 6500 ft
Dew Point 59 °F
Humidity 91%
Rainfall in
Snow Depth Not available.
5:35 AM 8:14 PM
Waning Gibbous, 46% visible
METAR KEEN 270556Z AUTO 00000KT 10SM BKN065 17/16 A2996 RMK AO2 SLP157 6//// T01720156 10272 20167 51006 PNO $
Pressure 30.00 in
Visibility 10.0 miles
Clouds Mostly Cloudy 6500 ft
Dew Point 59 °F
Humidity 91%
Rainfall in
Snow Depth Not available.
5:35 AM 8:14 PM
Waning Gibbous, 46% visible
METAR KEEN 270556Z AUTO 00000KT 10SM BKN065 17/16 A2996 RMK AO2 SLP157 6//// T01720156 10272 20167 51006 PNO $

10-Day Weather Forecast

Almanac

Astronomy

Jul. 27, 2016 Rise Set
Actual Time
Civil Twilight
Nautical Twilight
Astronomical Twilight
Moon
Length of Visible Light
Length of Day
Tomorrow will be .
, % of the Moon is Illuminated

Today's Extremes

State Highs State Lows

Community

WunderPhotos

Upload Photos

1,927,818 photos uploaded!

WunderBlog® & News

Nearby

Air Quality

  Air Quality AQ Index Pollutant
Not available.

Snow Depth

Station Depth Elevation

Earthquake Activity

City Distance Mag. Time & Date
Minimum magnitude displayed is 2.5.

Coastal Water Temperatures

Place Temperature

Stations

Nearby Weather Stations

Station Location Temp. Windchill Dew Point Humidity Wind Precip. Elev Updated Type
                   

Watches & Warnings

There are currently no watches in effect.